Terminal Aerodrome Forecast
Issued by NWS

Home | Current Version | Previous Version | Text Only | Print | Product List | Glossary Off
Versions: 1 2 3 4 5 6 7 8 9 10 11 12 13 14 15 16 17 18 19

000
FTUS43 KFGF 292012 AAB
TAFBJI
TAF AMD
KBJI 292012Z 2920/3018 35012KT P6SM BKN250
      TEMPO 2920/2922 BKN050
     FM300100 VRB04KT P6SM BKN250=

USA.gov is the U.S. government's official web portal to all federal, state and local government web resources and services.